Time;durP1;ratioP1;P1;durP2;ratioP2;P2;SDS_P1;SDS_P2;PMS_P1;PMS_P2;Temp;Humidity;BMP_temperature;BMP_pressure;BME280_temperature;BME280_humidity;BME280_pressure;Samples;Min_cycle;Max_cycle;Signal;HPM_P1;HPM_P2
2021/04/26 00:01:25;;;;;;;0.30;0.28;;;5.50;62.20;;;;;;5058074;28;20044;-75
2021/04/26 00:03:51;;;;;;;0.30;0.30;;;5.40;62.20;;;;;;5109798;28;20058;-75
2021/04/26 00:06:18;;;;;;;1.00;0.20;;;5.40;62.20;;;;;;5078086;28;20039;-75
2021/04/26 00:08:44;;;;;;;0.20;0.20;;;5.40;62.30;;;;;;5078297;28;20131;-75
2021/04/26 00:11:10;;;;;;;1.08;0.30;;;5.40;62.40;;;;;;5094956;28;20040;-74
2021/04/26 00:13:36;;;;;;;0.20;0.20;;;5.40;62.40;;;;;;5078237;28;20046;-74
2021/04/26 00:16:03;;;;;;;0.50;0.10;;;5.30;62.40;;;;;;5113161;28;20042;-76
2021/04/26 00:18:28;;;;;;;0.43;0.10;;;5.30;62.40;;;;;;5094982;28;20047;-76
2021/04/26 00:20:55;;;;;;;0.32;0.30;;;5.30;62.50;;;;;;5095006;28;20093;-77
2021/04/26 00:23:21;;;;;;;0.40;0.28;;;5.30;62.50;;;;;;5113324;28;20043;-75
2021/04/26 00:25:47;;;;;;;2.08;0.40;;;5.30;62.50;;;;;;5112914;28;20052;-77
2021/04/26 00:28:13;;;;;;;0.40;0.30;;;5.30;62.60;;;;;;5094721;28;20471;-76
2021/04/26 00:30:41;;;;;;;1.10;0.30;;;5.30;62.60;;;;;;5057898;28;20093;-77
2021/04/26 00:33:07;;;;;;;0.30;0.30;;;5.30;62.60;;;;;;5078666;28;20499;-74
2021/04/26 00:35:34;;;;;;;0.30;0.20;;;5.20;62.60;;;;;;5114477;28;20042;-75
2021/04/26 00:38:00;;;;;;;0.63;0.30;;;5.20;62.70;;;;;;5095553;28;20126;-76
2021/04/26 00:40:26;;;;;;;0.75;0.30;;;5.20;62.70;;;;;;5105344;28;20070;-76
2021/04/26 00:42:53;;;;;;;0.25;0.25;;;5.10;62.70;;;;;;5114915;28;20084;-77
2021/04/26 00:45:21;;;;;;;0.55;0.20;;;5.10;62.70;;;;;;5078102;28;20136;-75
2021/04/26 00:47:49;;;;;;;0.20;0.20;;;5.10;62.70;;;;;;5094512;28;20066;-74
2021/04/26 00:50:23;;;;;;;1.85;0.20;;;5.10;62.80;;;;;;5112991;28;20039;-76
2021/04/26 00:52:50;;;;;;;0.63;0.35;;;5.10;62.80;;;;;;5059592;28;20043;-74
2021/04/26 00:55:20;;;;;;;0.73;0.22;;;5.00;62.80;;;;;;5112701;28;20499;-73
2021/04/26 00:57:46;;;;;;;0.32;0.20;;;5.00;62.80;;;;;;5095136;28;20044;-73
2021/04/26 01:00:13;;;;;;;0.25;0.20;;;5.00;62.90;;;;;;5112695;28;20122;-73
2021/04/26 01:02:39;;;;;;;0.88;0.20;;;5.00;62.90;;;;;;5112943;28;20098;-76
2021/04/26 01:05:08;;;;;;;0.65;0.30;;;5.00;62.90;;;;;;5112330;28;20043;-74
2021/04/26 01:07:36;;;;;;;0.40;0.20;;;4.90;62.90;;;;;;5113285;28;20043;-75
2021/04/26 01:10:05;;;;;;;0.10;0.10;;;4.90;62.90;;;;;;5081058;28;20142;-74
2021/04/26 01:13:08;;;;;;;0.13;0.10;;;4.90;63.00;;;;;;5096411;28;20126;-75
2021/04/26 01:15:42;;;;;;;0.73;0.30;;;4.90;63.00;;;;;;5102576;28;20050;-74
2021/04/26 01:18:40;;;;;;;0.20;0.20;;;4.90;63.00;;;;;;5098220;28;20055;-74
2021/04/26 01:21:30;;;;;;;0.38;0.20;;;4.90;63.10;;;;;;5114843;28;20040;-74
2021/04/26 01:24:30;;;;;;;0.20;0.20;;;4.70;63.00;;;;;;5097524;28;20086;-74
2021/04/26 01:27:09;;;;;;;0.43;0.30;;;4.80;63.10;;;;;;5115637;28;20062;-74
2021/04/26 01:29:52;;;;;;;0.68;0.22;;;4.80;63.10;;;;;;5116387;28;20130;-76
2021/04/26 01:32:51;;;;;;;0.10;0.10;;;4.80;63.20;;;;;;5096602;28;20035;-77
2021/04/26 01:35:19;;;;;;;0.50;0.20;;;4.70;63.10;;;;;;5095771;28;20150;-76
2021/04/26 01:37:55;;;;;;;0.55;0.20;;;4.70;63.10;;;;;;5077248;28;20490;-77
2021/04/26 01:40:26;;;;;;;0.10;0.10;;;4.70;63.20;;;;;;5071439;28;20051;-76
2021/04/26 01:42:57;;;;;;;0.35;0.30;;;4.70;63.20;;;;;;5061223;28;20047;-78
2021/04/26 01:45:25;;;;;;;0.38;0.30;;;4.70;63.20;;;;;;5063375;28;20496;-77
2021/04/26 01:47:56;;;;;;;0.30;0.20;;;4.60;63.20;;;;;;5060217;28;20581;-77
2021/04/26 01:50:24;;;;;;;0.17;0.10;;;4.60;63.20;;;;;;5060597;28;20062;-77
2021/04/26 01:52:52;;;;;;;0.10;0.10;;;4.60;63.30;;;;;;5035471;28;20126;-78
2021/04/26 01:55:21;;;;;;;0.10;0.10;;;4.60;63.30;;;;;;5045243;28;20060;-77
2021/04/26 01:57:48;;;;;;;0.52;0.30;;;4.60;63.30;;;;;;5047636;28;20044;-77
2021/04/26 02:00:24;;;;;;;1.92;0.30;;;4.70;63.50;;;;;;5019290;28;20044;-77
2021/04/26 02:02:55;;;;;;;0.45;0.10;;;4.60;63.40;;;;;;5045166;28;20044;-77
2021/04/26 02:05:23;;;;;;;0.45;0.10;;;4.50;63.40;;;;;;5035413;28;20045;-77
2021/04/26 02:07:52;;;;;;;0.32;0.30;;;4.60;63.50;;;;;;5035505;28;20048;-77
2021/04/26 02:10:21;;;;;;;0.73;0.20;;;4.50;64.10;;;;;;5055288;28;20044;-78
2021/04/26 02:12:48;;;;;;;0.30;0.20;;;4.50;63.50;;;;;;5042573;28;20127;-77
2021/04/26 02:15:19;;;;;;;0.10;0.10;;;4.50;63.50;;;;;;5038088;28;20130;-77
2021/04/26 02:17:49;;;;;;;0.20;0.20;;;4.60;63.60;;;;;;5052483;28;20052;-77
2021/04/26 02:20:17;;;;;;;0.13;0.13;;;4.50;63.60;;;;;;5018906;28;20049;-77
2021/04/26 02:22:48;;;;;;;1.02;0.20;;;4.50;63.60;;;;;;5016354;28;20102;-77
2021/04/26 02:25:15;;;;;;;0.08;0.08;;;4.50;63.70;;;;;;5095794;28;20455;-77
2021/04/26 02:27:42;;;;;;;1.10;0.30;;;4.50;63.70;;;;;;5062811;28;20042;-77
2021/04/26 02:30:09;;;;;;;0.20;0.20;;;4.50;63.70;;;;;;5062925;28;20050;-76
2021/04/26 02:32:55;;;;;;;0.55;0.20;;;4.50;63.70;;;;;;5059513;28;20044;-77
2021/04/26 02:35:34;;;;;;;0.65;0.20;;;4.50;63.80;;;;;;5046197;28;20066;-77
2021/04/26 02:38:07;;;;;;;0.25;0.20;;;4.40;63.70;;;;;;5060209;28;20054;-77
2021/04/26 02:40:44;;;;;;;0.65;0.20;;;4.40;63.70;;;;;;5059172;28;20036;-77
2021/04/26 02:43:13;;;;;;;0.20;0.20;;;4.40;63.80;;;;;;5078529;28;20126;-77
2021/04/26 02:45:47;;;;;;;0.80;0.50;;;4.40;63.80;;;;;;5046470;28;20043;-77
2021/04/26 02:48:14;;;;;;;0.22;0.22;;;4.30;63.80;;;;;;5046634;28;20379;-76
2021/04/26 02:50:42;;;;;;;0.15;0.15;;;4.30;63.90;;;;;;5061652;28;20050;-77
2021/04/26 02:53:09;;;;;;;0.15;0.15;;;4.20;64.10;;;;;;5060774;28;20040;-78
2021/04/26 02:55:37;;;;;;;0.28;0.22;;;4.20;64.20;;;;;;5062464;28;20115;-76
2021/04/26 02:58:04;;;;;;;0.13;0.13;;;4.20;64.30;;;;;;5061996;28;20044;-77
2021/04/26 03:00:32;;;;;;;0.28;0.28;;;4.10;64.30;;;;;;5061646;28;20040;-77
2021/04/26 03:02:59;;;;;;;0.30;0.22;;;4.10;64.40;;;;;;5061145;28;20559;-77
2021/04/26 03:05:26;;;;;;;0.10;0.10;;;4.10;64.50;;;;;;5060558;28;20048;-77
2021/04/26 03:07:53;;;;;;;1.20;0.20;;;4.20;64.60;;;;;;5062405;28;20055;-77
2021/04/26 03:10:20;;;;;;;0.38;0.20;;;4.10;64.40;;;;;;5062009;28;20040;-76
2021/04/26 03:12:50;;;;;;;0.45;0.30;;;4.10;64.50;;;;;;5062540;28;20047;-76
2021/04/26 03:15:21;;;;;;;0.30;0.10;;;4.10;64.50;;;;;;5060738;28;20039;-77
2021/04/26 03:17:49;;;;;;;0.23;0.23;;;4.10;64.50;;;;;;5062454;28;20036;-77
2021/04/26 03:20:18;;;;;;;0.30;0.20;;;3.90;64.30;;;;;;5060490;28;20270;-76
2021/04/26 03:22:46;;;;;;;0.30;0.20;;;4.10;64.50;;;;;;5062304;28;20055;-76
2021/04/26 03:25:14;;;;;;;0.20;0.20;;;4.10;64.50;;;;;;5060439;28;20496;-77
2021/04/26 03:27:43;;;;;;;0.38;0.20;;;4.10;64.50;;;;;;5061828;28;20409;-75
2021/04/26 03:30:12;;;;;;;0.22;0.10;;;4.00;64.40;;;;;;5061054;28;20176;-76
2021/04/26 03:32:39;;;;;;;0.20;0.20;;;3.90;64.40;;;;;;5061930;28;20072;-76
2021/04/26 03:35:06;;;;;;;0.47;0.28;;;4.00;64.50;;;;;;5058852;28;20511;-78
2021/04/26 03:37:33;;;;;;;0.20;0.20;;;4.00;64.60;;;;;;5062159;28;20118;-78
2021/04/26 03:40:00;;;;;;;0.17;0.10;;;4.00;64.60;;;;;;5058416;28;20502;-78
2021/04/26 03:42:26;;;;;;;0.32;0.20;;;4.00;64.60;;;;;;5061399;28;20115;-78
2021/04/26 04:29:38;;;;;;;0.80;0.20;;;3.60;64.60;;;;;;4813640;29;20049;-77
2021/04/26 04:32:03;;;;;;;0.17;0.17;;;3.70;64.70;;;;;;4764282;30;20461;-78
2021/04/26 04:34:52;;;;;;;0.68;0.20;;;3.70;64.70;;;;;;4766351;30;20039;-76
2021/04/26 04:37:41;;;;;;;0.32;0.20;;;3.70;64.80;;;;;;4766165;30;20043;-77
2021/04/26 04:40:34;;;;;;;0.22;0.17;;;3.70;64.90;;;;;;4725607;30;20440;-79
2021/04/26 04:43:32;;;;;;;0.05;0.05;;;3.70;64.80;;;;;;4710522;30;20870;-76
2021/04/26 04:45:58;;;;;;;0.28;0.15;;;3.70;64.90;;;;;;4723462;30;20068;-77
2021/04/26 04:52:21;;;;;;;0.10;0.10;;;3.80;65.00;;;;;;4780108;30;20058;-77
2021/04/26 05:01:59;;;;;;;0.43;0.10;;;3.80;64.80;;;;;;4734449;30;20393;-77
2021/04/26 05:20:32;;;;;;;0.17;0.17;;;4.10;64.50;;;;;;4749668;30;20066;-78
2021/04/26 05:23:07;;;;;;;0.10;0.10;;;4.10;64.50;;;;;;4777017;29;20410;-78
2021/04/26 05:25:40;;;;;;;0.40;0.10;;;4.10;64.30;;;;;;4783657;29;20104;-77
2021/04/26 05:28:07;;;;;;;0.15;0.15;;;4.20;64.40;;;;;;4722921;30;20049;-77
2021/04/26 05:30:39;;;;;;;0.20;0.10;;;4.20;64.30;;;;;;4725695;30;20204;-77
2021/04/26 05:33:05;;;;;;;0.20;0.10;;;4.30;64.40;;;;;;4702761;30;20128;-77
2021/04/26 05:35:31;;;;;;;0.20;0.10;;;4.40;64.30;;;;;;4696682;30;20615;-77
2021/04/26 05:38:31;;;;;;;0.17;0.17;;;4.40;64.30;;;;;;4696272;30;20112;-77
2021/04/26 05:44:14;;;;;;;1.35;0.30;;;4.50;64.10;;;;;;4660504;30;20086;-77
2021/04/26 05:46:46;;;;;;;0.10;0.10;;;4.60;64.10;;;;;;4665764;30;20053;-77
2021/04/26 05:53:42;;;;;;;0.20;0.20;;;4.70;64.00;;;;;;4750757;29;20498;-77
2021/04/26 05:56:48;;;;;;;0.22;0.20;;;4.80;64.00;;;;;;4786125;30;20047;-77
2021/04/26 06:02:16;;;;;;;0.35;0.13;;;4.90;63.70;;;;;;4779382;30;20059;-75
2021/04/26 06:04:45;;;;;;;0.90;0.30;;;5.00;63.60;;;;;;4786597;29;20075;-78
2021/04/26 06:07:11;;;;;;;0.30;0.20;;;5.00;63.50;;;;;;4769809;30;20078;-76
2021/04/26 06:09:37;;;;;;;0.20;0.20;;;5.10;63.50;;;;;;4769194;30;20146;-77
2021/04/26 06:12:04;;;;;;;0.20;0.20;;;5.20;63.50;;;;;;4769371;30;20106;-77
2021/04/26 06:14:30;;;;;;;0.65;0.20;;;5.20;63.40;;;;;;4787080;29;20108;-75
2021/04/26 06:16:56;;;;;;;0.10;0.10;;;5.40;63.40;;;;;;4804904;29;20046;-75
2021/04/26 06:19:22;;;;;;;0.20;0.20;;;5.50;63.30;;;;;;4804787;29;20046;-76
2021/04/26 06:21:49;;;;;;;1.98;0.40;;;5.50;63.10;;;;;;4839481;29;20082;-76
2021/04/26 06:24:15;;;;;;;0.50;0.20;;;5.60;63.00;;;;;;4897365;29;20052;-78
2021/04/26 06:26:42;;;;;;;0.82;0.32;;;5.70;62.90;;;;;;4887357;29;20028;-76
2021/04/26 06:29:08;;;;;;;0.20;0.20;;;5.80;62.90;;;;;;4921805;28;20056;-74
2021/04/26 06:31:34;;;;;;;0.43;0.30;;;5.90;62.70;;;;;;5003481;28;20040;-77
2021/04/26 06:34:00;;;;;;;0.30;0.30;;;5.90;62.70;;;;;;5116026;28;20039;-77
2021/04/26 06:36:27;;;;;;;0.22;0.20;;;6.10;62.60;;;;;;5115018;28;20035;-78
2021/04/26 06:38:55;;;;;;;0.32;0.22;;;6.10;62.50;;;;;;5079788;28;20066;-78
2021/04/26 06:41:22;;;;;;;0.43;0.30;;;6.30;62.40;;;;;;5096882;28;20485;-78
2021/04/26 06:44:08;;;;;;;0.20;0.20;;;6.30;62.30;;;;;;5078130;28;20044;-78
2021/04/26 06:46:34;;;;;;;0.95;0.20;;;6.50;62.20;;;;;;5072529;28;20044;-78
2021/04/26 06:49:02;;;;;;;0.20;0.20;;;6.60;62.00;;;;;;5092494;28;20093;-78
2021/04/26 06:51:28;;;;;;;0.30;0.25;;;6.70;61.90;;;;;;5096392;28;20090;-78
2021/04/26 06:53:55;;;;;;;0.45;0.20;;;6.80;61.70;;;;;;5095709;28;20504;-78
2021/04/26 06:56:21;;;;;;;0.65;0.30;;;6.80;61.70;;;;;;5078229;28;20036;-77
2021/04/26 06:58:47;;;;;;;0.30;0.30;;;6.90;61.60;;;;;;5062608;28;20035;-78
2021/04/26 07:01:13;;;;;;;0.40;0.30;;;7.10;61.60;;;;;;5078814;28;20043;-78
2021/04/26 07:03:39;;;;;;;0.65;0.32;;;7.20;61.50;;;;;;5055075;28;20221;-78
2021/04/26 07:06:06;;;;;;;1.13;0.50;;;7.30;61.40;;;;;;5076810;28;20035;-78
2021/04/26 07:08:32;;;;;;;2.00;0.47;;;7.30;61.30;;;;;;5114453;28;20096;-78
2021/04/26 07:11:01;;;;;;;0.20;0.17;;;7.40;61.20;;;;;;5114669;28;20047;-78
2021/04/26 07:13:27;;;;;;;0.80;0.38;;;7.40;61.10;;;;;;5079615;28;20036;-78
2021/04/26 07:15:55;;;;;;;0.20;0.20;;;7.60;61.20;;;;;;5072934;28;20028;-79
2021/04/26 07:18:21;;;;;;;0.22;0.20;;;7.70;61.10;;;;;;5079220;28;20063;-78
2021/04/26 07:20:47;;;;;;;1.25;0.25;;;7.70;61.00;;;;;;5059542;28;20040;-78
2021/04/26 07:23:20;;;;;;;0.20;0.20;;;7.90;61.00;;;;;;5096242;28;20043;-78
2021/04/26 07:25:46;;;;;;;0.68;0.20;;;8.00;60.80;;;;;;5115273;28;20138;-75
2021/04/26 07:28:12;;;;;;;0.20;0.20;;;8.10;60.60;;;;;;5097777;28;20039;-77
2021/04/26 07:30:42;;;;;;;1.05;0.30;;;8.10;60.60;;;;;;5096764;28;20040;-79
2021/04/26 07:33:08;;;;;;;0.25;0.25;;;8.20;60.50;;;;;;5089011;28;20035;-77
2021/04/26 07:35:41;;;;;;;0.20;0.20;;;8.30;60.40;;;;;;5113301;28;20473;-78
2021/04/26 07:38:10;;;;;;;0.22;0.22;;;8.40;61.00;;;;;;5045973;28;20083;-76
2021/04/26 07:40:36;;;;;;;0.43;0.30;;;8.60;60.20;;;;;;5021000;28;20045;-76
2021/04/26 07:43:02;;;;;;;0.45;0.30;;;8.60;60.10;;;;;;5029571;28;20044;-76
2021/04/26 07:45:28;;;;;;;0.95;0.43;;;8.80;60.00;;;;;;5034318;28;20517;-77
2021/04/26 07:47:57;;;;;;;0.40;0.30;;;9.00;59.90;;;;;;5019545;28;20139;-78
2021/04/26 07:50:24;;;;;;;0.30;0.30;;;9.10;59.80;;;;;;5036869;28;20247;-77
2021/04/26 07:52:51;;;;;;;0.30;0.30;;;9.10;59.50;;;;;;5018464;28;20060;-77
2021/04/26 07:55:17;;;;;;;0.13;0.13;;;9.30;59.40;;;;;;5018046;28;20041;-77
2021/04/26 07:57:44;;;;;;;0.30;0.17;;;9.40;59.30;;;;;;5018072;28;20080;-77
2021/04/26 08:00:11;;;;;;;0.93;0.30;;;9.70;59.20;;;;;;5034280;28;20029;-75
2021/04/26 08:02:37;;;;;;;0.30;0.20;;;9.80;58.90;;;;;;5051027;28;20044;-75
2021/04/26 08:05:04;;;;;;;0.40;0.20;;;10.10;58.80;;;;;;5050741;28;20045;-75
2021/04/26 08:07:31;;;;;;;0.30;0.30;;;10.20;58.50;;;;;;5050568;28;20045;-75
2021/04/26 08:09:58;;;;;;;0.32;0.30;;;10.50;58.40;;;;;;5070808;28;20450;-75
2021/04/26 08:12:24;;;;;;;0.10;0.10;;;10.70;58.10;;;;;;5078326;28;20135;-76
2021/04/26 08:14:50;;;;;;;0.20;0.20;;;10.90;57.90;;;;;;5094964;28;20528;-76
2021/04/26 08:17:16;;;;;;;0.85;0.45;;;11.00;57.80;;;;;;5095556;28;20036;-76
2021/04/26 08:19:43;;;;;;;1.10;0.52;;;11.20;57.80;;;;;;5095227;28;20047;-74
2021/04/26 08:22:10;;;;;;;1.02;0.30;;;11.30;57.80;;;;;;5095308;28;20045;-75
2021/04/26 08:24:37;;;;;;;0.30;0.30;;;11.40;57.60;;;;;;5095897;28;20114;-75
2021/04/26 08:27:03;;;;;;;0.22;0.22;;;11.60;57.60;;;;;;5113357;28;20031;-75
2021/04/26 08:29:29;;;;;;;0.38;0.30;;;11.70;57.40;;;;;;5034560;28;20118;-76
2021/04/26 08:31:56;;;;;;;1.00;0.20;;;11.90;57.30;;;;;;5017372;28;20033;-76
2021/04/26 08:34:22;;;;;;;0.63;0.40;;;12.00;57.30;;;;;;5050941;28;20049;-75
2021/04/26 08:36:49;;;;;;;0.30;0.30;;;12.10;57.10;;;;;;5017233;28;20395;-79
2021/04/26 08:39:16;;;;;;;0.32;0.30;;;12.30;57.10;;;;;;5033852;28;20124;-76
2021/04/26 08:41:44;;;;;;;0.65;0.32;;;12.50;56.90;;;;;;5050690;28;20061;-76
2021/04/26 08:44:11;;;;;;;0.63;0.40;;;12.60;56.60;;;;;;5017239;28;20055;-77
2021/04/26 08:46:41;;;;;;;0.57;0.40;;;12.70;56.60;;;;;;5033900;28;20077;-79
2021/04/26 08:49:09;;;;;;;0.63;0.40;;;12.80;56.40;;;;;;5052663;28;20037;-80
2021/04/26 08:51:37;;;;;;;0.20;0.20;;;13.00;56.50;;;;;;5036670;28;20061;-79
2021/04/26 08:54:04;;;;;;;0.28;0.28;;;13.20;56.30;;;;;;5036482;28;20041;-77
2021/04/26 08:56:30;;;;;;;0.50;0.30;;;13.30;56.00;;;;;;5018671;28;20140;-78
2021/04/26 08:58:56;;;;;;;0.82;0.43;;;13.30;56.00;;;;;;5018970;28;20083;-78
2021/04/26 09:01:23;;;;;;;1.60;0.40;;;13.40;56.10;;;;;;5053508;28;20059;-79
2021/04/26 09:03:49;;;;;;;0.30;0.20;;;13.30;56.00;;;;;;5109562;28;20135;-78
2021/04/26 09:06:15;;;;;;;0.40;0.40;;;13.50;56.20;;;;;;5077279;28;20439;-78
2021/04/26 09:08:50;;;;;;;1.00;0.35;;;13.60;56.10;;;;;;5095571;28;20039;-79
2021/04/26 09:11:17;;;;;;;0.30;0.30;;;13.70;56.00;;;;;;5094482;28;20047;-80
2021/04/26 09:13:46;;;;;;;0.50;0.40;;;13.90;56.00;;;;;;5074154;28;20040;-79
2021/04/26 09:16:25;;;;;;;0.80;0.40;;;13.90;55.70;;;;;;5093296;28;20051;-81
2021/04/26 09:18:59;;;;;;;0.65;0.32;;;14.00;55.60;;;;;;5079187;28;20138;-82
2021/04/26 09:21:29;;;;;;;0.40;0.40;;;14.20;56.20;;;;;;5024538;28;20449;-80
2021/04/26 09:24:36;;;;;;;0.30;0.30;;;14.30;55.50;;;;;;5053457;28;20048;-79
2021/04/26 09:27:10;;;;;;;0.77;0.40;;;14.30;55.20;;;;;;5056838;28;20041;-77
2021/04/26 09:29:37;;;;;;;0.43;0.32;;;14.30;55.40;;;;;;5037696;28;20406;-76
2021/04/26 09:32:12;;;;;;;0.40;0.22;;;14.30;55.60;;;;;;5040002;28;20033;-76
2021/04/26 09:34:44;;;;;;;0.20;0.20;;;14.40;55.60;;;;;;5056396;28;20045;-75
2021/04/26 09:37:18;;;;;;;0.30;0.30;;;14.40;55.40;;;;;;5056535;28;20091;-77
2021/04/26 09:40:14;;;;;;;0.85;0.32;;;14.50;55.40;;;;;;5056342;28;20102;-77
2021/04/26 09:42:53;;;;;;;0.30;0.30;;;14.60;55.30;;;;;;5073822;28;20049;-78
2021/04/26 09:45:37;;;;;;;0.20;0.20;;;14.80;55.30;;;;;;5070219;28;20035;-79
2021/04/26 09:48:14;;;;;;;0.40;0.40;;;15.00;55.00;;;;;;5116367;28;20043;-78
2021/04/26 09:50:56;;;;;;;0.50;0.20;;;14.90;55.00;;;;;;5091422;28;20121;-77
2021/04/26 09:53:26;;;;;;;0.13;0.13;;;15.00;55.10;;;;;;5091114;28;20075;-77
2021/04/26 09:55:55;;;;;;;0.60;0.40;;;15.00;55.10;;;;;;5061045;28;20042;-77
2021/04/26 09:58:21;;;;;;;0.55;0.32;;;15.10;55.10;;;;;;5077546;28;20067;-77
2021/04/26 10:00:47;;;;;;;0.32;0.32;;;15.10;54.90;;;;;;5096229;28;20105;-75
2021/04/26 10:03:15;;;;;;;0.40;0.40;;;15.10;55.00;;;;;;5115500;28;20046;-78
2021/04/26 10:05:43;;;;;;;0.70;0.30;;;15.20;54.90;;;;;;5115570;28;20048;-78
2021/04/26 10:08:12;;;;;;;0.30;0.30;;;15.30;54.80;;;;;;5061607;28;20044;-78
2021/04/26 10:10:40;;;;;;;0.30;0.30;;;15.30;54.60;;;;;;5080727;28;20040;-77
2021/04/26 10:13:07;;;;;;;0.57;0.40;;;15.30;54.50;;;;;;5096533;28;20081;-78
2021/04/26 10:15:33;;;;;;;0.60;0.35;;;15.40;54.60;;;;;;5115252;28;20073;-78
2021/04/26 10:18:06;;;;;;;0.52;0.40;;;15.40;54.70;;;;;;5096101;28;20044;-79
2021/04/26 10:20:40;;;;;;;0.35;0.35;;;15.40;54.50;;;;;;5095991;28;20044;-76
2021/04/26 10:23:35;;;;;;;0.40;0.40;;;15.50;54.50;;;;;;5096189;28;20039;-77
2021/04/26 10:26:01;;;;;;;0.38;0.30;;;15.50;54.20;;;;;;5078778;28;20185;-76
2021/04/26 10:28:29;;;;;;;0.30;0.30;;;15.60;54.20;;;;;;5094848;28;20089;-76
2021/04/26 10:30:59;;;;;;;0.45;0.43;;;15.60;53.90;;;;;;5096702;28;20112;-77
2021/04/26 10:33:25;;;;;;;0.70;0.40;;;15.50;54.00;;;;;;5115431;28;20042;-78
2021/04/26 10:35:52;;;;;;;0.68;0.40;;;15.40;54.30;;;;;;5096483;28;20481;-78
2021/04/26 10:38:47;;;;;;;0.57;0.50;;;15.40;54.30;;;;;;5078730;28;20513;-77
2021/04/26 10:41:48;;;;;;;0.93;0.47;;;15.60;54.00;;;;;;5113768;28;20039;-78
2021/04/26 10:44:15;;;;;;;0.22;0.22;;;15.50;53.70;;;;;;5115091;28;20051;-77
2021/04/26 10:46:41;;;;;;;0.35;0.35;;;15.40;53.90;;;;;;5079615;28;20396;-77
2021/04/26 10:49:25;;;;;;;0.40;0.40;;;15.40;54.00;;;;;;5114718;28;20097;-77
2021/04/26 10:51:51;;;;;;;1.08;0.50;;;15.50;53.80;;;;;;5096083;28;20047;-77
2021/04/26 10:54:40;;;;;;;0.40;0.40;;;15.60;53.60;;;;;;5115030;28;20504;-77
2021/04/26 10:57:41;;;;;;;0.68;0.40;;;15.60;53.50;;;;;;5114896;28;20042;-77
2021/04/26 11:00:39;;;;;;;0.73;0.43;;;15.50;53.30;;;;;;5114729;28;20023;-77
2021/04/26 11:03:33;;;;;;;0.50;0.40;;;15.50;53.40;;;;;;5080861;28;20036;-77
2021/04/26 11:06:12;;;;;;;0.40;0.40;;;15.60;53.40;;;;;;5098729;28;20078;-76
2021/04/26 11:08:44;;;;;;;0.45;0.40;;;15.60;53.30;;;;;;5095117;28;20072;-77
2021/04/26 11:11:17;;;;;;;0.60;0.40;;;15.70;53.10;;;;;;5093331;28;20078;-76
2021/04/26 11:13:56;;;;;;;1.08;0.40;;;15.80;52.70;;;;;;5113799;28;20127;-78
2021/04/26 11:16:27;;;;;;;1.00;0.60;;;15.80;52.70;;;;;;5114289;28;20042;-78
2021/04/26 11:19:09;;;;;;;0.40;0.40;;;15.70;52.50;;;;;;5061855;28;20047;-78
2021/04/26 11:21:53;;;;;;;0.20;0.20;;;15.60;52.60;;;;;;5114528;28;20039;-80
2021/04/26 11:24:50;;;;;;;1.50;0.40;;;15.60;52.70;;;;;;5094734;28;20505;-79
2021/04/26 11:27:18;;;;;;;0.40;0.40;;;15.60;52.60;;;;;;5098467;28;20047;-79
2021/04/26 11:30:13;;;;;;;0.60;0.43;;;15.70;52.40;;;;;;5078583;28;20139;-77
2021/04/26 11:32:58;;;;;;;0.32;0.32;;;15.70;52.10;;;;;;5095101;28;20460;-78
2021/04/26 11:35:25;;;;;;;0.50;0.40;;;15.80;52.10;;;;;;5113978;28;20069;-77
2021/04/26 11:37:52;;;;;;;0.60;0.60;;;15.70;52.20;;;;;;5060518;28;20447;-78
2021/04/26 11:40:21;;;;;;;0.52;0.50;;;15.70;52.00;;;;;;5078935;28;20040;-79
2021/04/26 11:42:49;;;;;;;0.88;0.60;;;15.70;51.80;;;;;;5095363;28;20477;-77
2021/04/26 11:45:20;;;;;;;0.52;0.50;;;15.60;51.70;;;;;;5113707;28;20051;-77
2021/04/26 11:47:48;;;;;;;0.60;0.40;;;15.50;51.90;;;;;;5114142;28;20031;-76
2021/04/26 11:50:14;;;;;;;0.50;0.50;;;15.50;51.80;;;;;;5095139;28;20396;-75
2021/04/26 11:52:40;;;;;;;0.43;0.43;;;15.60;51.70;;;;;;5113503;28;20110;-74
2021/04/26 11:55:10;;;;;;;0.60;0.40;;;15.60;51.50;;;;;;5114013;28;20538;-73
2021/04/26 11:57:54;;;;;;;0.43;0.40;;;15.70;51.80;;;;;;5096076;28;20035;-74
2021/04/26 12:00:25;;;;;;;1.08;0.40;;;15.70;51.00;;;;;;5095684;28;20480;-76
2021/04/26 12:02:54;;;;;;;;;;;15.60;51.20;;;;;;5112377;28;20046;-74
2021/04/26 12:05:23;;;;;;;0.30;0.30;;;15.50;51.30;;;;;;5078712;28;20369;-76
2021/04/26 12:07:52;;;;;;;0.60;0.40;;;15.50;51.40;;;;;;5114258;28;20036;-78
2021/04/26 12:10:21;;;;;;;0.50;0.50;;;15.50;51.20;;;;;;5079510;28;20397;-77
2021/04/26 12:12:48;;;;;;;0.40;0.40;;;15.60;51.10;;;;;;5114218;28;20043;-76
2021/04/26 12:15:17;;;;;;;0.50;0.50;;;15.60;50.80;;;;;;5077945;28;20035;-76
2021/04/26 12:17:49;;;;;;;1.13;0.50;;;15.60;50.60;;;;;;5095702;28;20047;-77
2021/04/26 12:20:22;;;;;;;0.93;0.55;;;15.70;50.50;;;;;;5095391;28;20046;-78
2021/04/26 12:22:52;;;;;;;0.50;0.50;;;15.80;50.40;;;;;;5058466;28;20064;-75
2021/04/26 12:25:19;;;;;;;1.20;0.50;;;15.90;50.30;;;;;;5105677;28;20366;-77
2021/04/26 12:27:45;;;;;;;0.40;0.40;;;16.00;50.00;;;;;;5095967;28;20035;-78
2021/04/26 12:30:17;;;;;;;0.50;0.50;;;16.10;49.80;;;;;;5113189;28;20061;-77
